sensor_id;sensor_type;location;lat;lon;timestamp;pressure;altitude;pressure_sealevel;temperature;humidity
7170;BME280;3626;42.656;23.312;2023-04-07T00:00:05;94195.03;;;1.03;57.16
7170;BME280;3626;42.656;23.312;2023-04-07T00:00:12;94200.81;;;1.05;57.27
7170;BME280;3626;42.656;23.312;2023-04-07T00:00:18;94193.31;;;1.03;57.15
7170;BME280;3626;42.656;23.312;2023-04-07T00:00:24;94186.50;;;1.04;57.27
7170;BME280;3626;42.656;23.312;2023-04-07T00:00:31;94196.66;;;1.04;57.19
7170;BME280;3626;42.656;23.312;2023-04-07T00:00:37;94191.56;;;1.04;56.99
7170;BME280;3626;42.656;23.312;2023-04-07T00:00:44;94189.03;;;1.04;57.11
7170;BME280;3626;42.656;23.312;2023-04-07T00:00:50;94193.31;;;1.03;57.51
7170;BME280;3626;42.656;23.312;2023-04-07T00:00:56;94193.19;;;1.05;57.39
7170;BME280;3626;42.656;23.312;2023-04-07T00:01:02;94200.81;;;1.05;57.24
7170;BME280;3626;42.656;23.312;2023-04-07T00:01:08;94183.81;;;1.05;57.11
7170;BME280;3626;42.656;23.312;2023-04-07T00:01:15;94185.56;;;1.05;56.93
7170;BME280;3626;42.656;23.312;2023-04-07T00:01:23;94191.44;;;1.05;57.01
7170;BME280;3626;42.656;23.312;2023-04-07T00:01:30;94185.56;;;1.05;56.95
7170;BME280;3626;42.656;23.312;2023-04-07T00:01:37;94190.63;;;1.05;56.98
7170;BME280;3626;42.656;23.312;2023-04-07T00:01:42;94188.09;;;1.05;57.01
7170;BME280;3626;42.656;23.312;2023-04-07T00:01:48;94184.63;;;1.06;57.05
7170;BME280;3626;42.656;23.312;2023-04-07T00:01:55;94184.75;;;1.04;56.90
7170;BME280;3626;42.656;23.312;2023-04-07T00:02:01;94190.63;;;1.05;57.07
7170;BME280;3626;42.656;23.312;2023-04-07T00:02:07;94188.91;;;1.05;57.01
7170;BME280;3626;42.656;23.312;2023-04-07T00:02:13;94189.69;;;1.06;57.13
7170;BME280;3626;42.656;23.312;2023-04-07T00:02:19;94194.91;;;1.04;57.02
7170;BME280;3626;42.656;23.312;2023-04-07T00:02:26;94187.28;;;1.04;56.98
7170;BME280;3626;42.656;23.312;2023-04-07T00:02:33;94187.97;;;1.06;57.09
7170;BME280;3626;42.656;23.312;2023-04-07T00:02:39;94190.63;;;1.05;56.93
7170;BME280;3626;42.656;23.312;2023-04-07T00:02:46;94192.25;;;1.06;57.00
7170;BME280;3626;42.656;23.312;2023-04-07T00:02:53;94191.44;;;1.05;57.14
7170;BME280;3626;42.656;23.312;2023-04-07T00:02:59;94192.25;;;1.06;56.88
7170;BME280;3626;42.656;23.312;2023-04-07T00:03:06;94193.03;;;1.06;56.96
7170;BME280;3626;42.656;23.312;2023-04-07T00:03:13;94192.25;;;1.06;57.31
7170;BME280;3626;42.656;23.312;2023-04-07T00:03:19;94187.97;;;1.06;56.89
7170;BME280;3626;42.656;23.312;2023-04-07T00:03:26;94193.03;;;1.06;56.71
7170;BME280;3626;42.656;23.312;2023-04-07T00:03:32;94192.94;;;1.08;56.80
7170;BME280;3626;42.656;23.312;2023-04-07T00:03:43;94192.00;;;1.09;56.96
7170;BME280;3626;42.656;23.312;2023-04-07T00:03:49;94186.13;;;1.08;56.95
7170;BME280;3626;42.656;23.312;2023-04-07T00:03:55;94187.06;;;1.07;57.16
7170;BME280;3626;42.656;23.312;2023-04-07T00:04:01;94192.94;;;1.08;56.97
7170;BME280;3626;42.656;23.312;2023-04-07T00:04:07;94185.31;;;1.08;56.97
7170;BME280;3626;42.656;23.312;2023-04-07T00:04:13;94186.25;;;1.07;57.14
7170;BME280;3626;42.656;23.312;2023-04-07T00:04:19;94180.25;;;1.08;57.29
7170;BME280;3626;42.656;23.312;2023-04-07T00:04:25;94186.13;;;1.08;56.97
7170;BME280;3626;42.656;23.312;2023-04-07T00:04:31;94191.22;;;1.08;56.92
7170;BME280;3626;42.656;23.312;2023-04-07T00:04:37;94189.47;;;1.09;56.82
7170;BME280;3626;42.656;23.312;2023-04-07T00:04:43;94182.66;;;1.09;57.07
7170;BME280;3626;42.656;23.312;2023-04-07T00:04:49;94191.06;;;1.10;56.94
7170;BME280;3626;42.656;23.312;2023-04-07T00:04:55;94192.81;;;1.09;57.07
7170;BME280;3626;42.656;23.312;2023-04-07T00:05:01;94182.78;;;1.08;57.26
7170;BME280;3626;42.656;23.312;2023-04-07T00:05:11;94187.88;;;1.08;57.06
7170;BME280;3626;42.656;23.312;2023-04-07T00:05:20;94190.50;;;1.06;57.07
7170;BME280;3626;42.656;23.312;2023-04-07T00:05:26;94193.75;;;1.08;56.92
7170;BME280;3626;42.656;23.312;2023-04-07T00:05:32;94185.31;;;1.08;57.20
7170;BME280;3626;42.656;23.312;2023-04-07T00:05:38;94189.34;;;1.10;57.02
7170;BME280;3626;42.656;23.312;2023-04-07T00:05:44;94191.06;;;1.10;57.12
7170;BME280;3626;42.656;23.312;2023-04-07T00:05:50;94188.53;;;1.10;56.96
7170;BME280;3626;42.656;23.312;2023-04-07T00:05:56;94189.34;;;1.10;57.40
7170;BME280;3626;42.656;23.312;2023-04-07T00:06:02;94190.16;;;1.11;56.99
7170;BME280;3626;42.656;23.312;2023-04-07T00:06:09;94189.34;;;1.10;57.15
7170;BME280;3626;42.656;23.312;2023-04-07T00:06:15;94187.63;;;1.11;56.79
7170;BME280;3626;42.656;23.312;2023-04-07T00:06:21;94190.16;;;1.11;57.15
7170;BME280;3626;42.656;23.312;2023-04-07T00:06:27;94192.72;;;1.11;56.93
7170;BME280;3626;42.656;23.312;2023-04-07T00:06:35;94186.69;;;1.12;57.04
7170;BME280;3626;42.656;23.312;2023-04-07T00:06:41;94188.31;;;1.13;57.34
7170;BME280;3626;42.656;23.312;2023-04-07T00:06:50;94190.97;;;1.11;57.24
7170;BME280;3626;42.656;23.312;2023-04-07T00:06:56;94187.50;;;1.12;57.33
7170;BME280;3626;42.656;23.312;2023-04-07T00:07:02;94196.06;;;1.11;57.49
7170;BME280;3626;42.656;23.312;2023-04-07T00:07:10;94196.06;;;1.11;57.35
7170;BME280;3626;42.656;23.312;2023-04-07T00:07:16;94192.72;;;1.11;57.15
7170;BME280;3626;42.656;23.312;2023-04-07T00:07:22;94191.06;;;1.10;57.37
7170;BME280;3626;42.656;23.312;2023-04-07T00:07:29;94196.06;;;1.11;57.14
7170;BME280;3626;42.656;23.312;2023-04-07T00:07:35;94193.63;;;1.10;57.19
7170;BME280;3626;42.656;23.312;2023-04-07T00:07:41;94187.88;;;1.08;57.18
7170;BME280;3626;42.656;23.312;2023-04-07T00:07:47;94193.63;;;1.10;57.13
7170;BME280;3626;42.656;23.312;2023-04-07T00:07:53;94194.41;;;1.10;57.11
7170;BME280;3626;42.656;23.312;2023-04-07T00:07:59;94196.28;;;1.08;57.37
7170;BME280;3626;42.656;23.312;2023-04-07T00:08:05;94182.78;;;1.08;57.16
7170;BME280;3626;42.656;23.312;2023-04-07T00:08:12;94195.34;;;1.09;57.30
7170;BME280;3626;42.656;23.312;2023-04-07T00:08:18;94193.63;;;1.10;57.35
7170;BME280;3626;42.656;23.312;2023-04-07T00:08:26;94193.63;;;1.10;57.15
7170;BME280;3626;42.656;23.312;2023-04-07T00:08:32;94188.44;;;1.11;57.22
7170;BME280;3626;42.656;23.312;2023-04-07T00:08:38;94187.63;;;1.11;57.28
7170;BME280;3626;42.656;23.312;2023-04-07T00:08:45;94196.06;;;1.11;56.85
7170;BME280;3626;42.656;23.312;2023-04-07T00:08:51;94189.25;;;1.12;56.74
7170;BME280;3626;42.656;23.312;2023-04-07T00:08:57;94183.34;;;1.11;56.40
7170;BME280;3626;42.656;23.312;2023-04-07T00:09:02;94182.41;;;1.12;56.55
7170;BME280;3626;42.656;23.312;2023-04-07T00:09:09;94188.31;;;1.13;56.37
7170;BME280;3626;42.656;23.312;2023-04-07T00:09:15;94178.13;;;1.13;56.39
7170;BME280;3626;42.656;23.312;2023-04-07T00:09:21;94182.28;;;1.14;56.37
7170;BME280;3626;42.656;23.312;2023-04-07T00:09:27;94186.69;;;1.12;56.51
7170;BME280;3626;42.656;23.312;2023-04-07T00:09:33;94184.97;;;1.12;56.63
7170;BME280;3626;42.656;23.312;2023-04-07T00:09:42;94177.47;;;1.11;56.58
7170;BME280;3626;42.656;23.312;2023-04-07T00:09:49;94179.16;;;1.10;56.53
7170;BME280;3626;42.656;23.312;2023-04-07T00:09:55;94175.16;;;1.08;56.61
7170;BME280;3626;42.656;23.312;2023-04-07T00:10:01;94177.56;;;1.09;56.57
7170;BME280;3626;42.656;23.312;2023-04-07T00:10:08;94181.97;;;1.07;56.81
7170;BME280;3626;42.656;23.312;2023-04-07T00:10:14;94179.44;;;1.07;56.78
7170;BME280;3626;42.656;23.312;2023-04-07T00:10:20;94181.97;;;1.07;56.63
7170;BME280;3626;42.656;23.312;2023-04-07T00:10:26;94170.75;;;1.10;56.63
7170;BME280;3626;42.656;23.312;2023-04-07T00:10:32;94176.75;;;1.09;56.33
7170;BME280;3626;42.656;23.312;2023-04-07T00:10:38;94183.44;;;1.10;56.28
7170;BME280;3626;42.656;23.312;2023-04-07T00:10:44;94183.44;;;1.10;56.40
7170;BME280;3626;42.656;23.312;2023-04-07T00:10:50;94181.72;;;1.10;56.23
7170;BME280;3626;42.656;23.312;2023-04-07T00:10:56;94178.38;;;1.10;56.51
7170;BME280;3626;42.656;23.312;2023-04-07T00:11:03;94184.25;;;1.10;56.39
7170;BME280;3626;42.656;23.312;2023-04-07T00:11:09;94179.16;;;1.10;56.66
7170;BME280;3626;42.656;23.312;2023-04-07T00:11:15;94185.09;;;1.11;56.74
7170;BME280;3626;42.656;23.312;2023-04-07T00:11:21;94181.72;;;1.10;56.76
7170;BME280;3626;42.656;23.312;2023-04-07T00:11:27;94183.44;;;1.10;56.61
7170;BME280;3626;42.656;23.312;2023-04-07T00:11:34;94184.25;;;1.10;56.45
7170;BME280;3626;42.656;23.312;2023-04-07T00:11:40;94186.00;;;1.10;56.63
7170;BME280;3626;42.656;23.312;2023-04-07T00:11:46;94186.00;;;1.10;56.90
7170;BME280;3626;42.656;23.312;2023-04-07T00:11:53;94187.72;;;1.09;56.89
7170;BME280;3626;42.656;23.312;2023-04-07T00:11:59;94180.25;;;1.08;56.65
7170;BME280;3626;42.656;23.312;2023-04-07T00:12:07;94178.50;;;1.08;57.00
7170;BME280;3626;42.656;23.312;2023-04-07T00:12:13;94187.88;;;1.08;56.83
7170;BME280;3626;42.656;23.312;2023-04-07T00:12:19;94188.53;;;1.10;56.71
7170;BME280;3626;42.656;23.312;2023-04-07T00:12:25;94188.53;;;1.10;56.66
7170;BME280;3626;42.656;23.312;2023-04-07T00:12:31;94185.31;;;1.08;57.04
7170;BME280;3626;42.656;23.312;2023-04-07T00:12:37;94183.59;;;1.08;56.82
7170;BME280;3626;42.656;23.312;2023-04-07T00:12:43;94181.16;;;1.07;56.91
7170;BME280;3626;42.656;23.312;2023-04-07T00:12:49;94180.91;;;1.10;56.51
7170;BME280;3626;42.656;23.312;2023-04-07T00:12:57;94186.00;;;1.10;56.94
7170;BME280;3626;42.656;23.312;2023-04-07T00:13:05;94190.16;;;1.11;56.38
7170;BME280;3626;42.656;23.312;2023-04-07T00:13:11;94185.09;;;1.11;56.95
7170;BME280;3626;42.656;23.312;2023-04-07T00:13:17;94181.72;;;1.10;56.64
7170;BME280;3626;42.656;23.312;2023-04-07T00:13:23;94185.91;;;1.11;56.79
7170;BME280;3626;42.656;23.312;2023-04-07T00:13:29;94187.63;;;1.11;56.47
7170;BME280;3626;42.656;23.312;2023-04-07T00:13:35;94186.00;;;1.10;56.69
7170;BME280;3626;42.656;23.312;2023-04-07T00:13:43;94183.44;;;1.10;56.54
7170;BME280;3626;42.656;23.312;2023-04-07T00:13:49;94190.16;;;1.11;56.75
7170;BME280;3626;42.656;23.312;2023-04-07T00:13:55;94182.78;;;1.08;56.87
7170;BME280;3626;42.656;23.312;2023-04-07T00:14:01;94187.88;;;1.08;56.65
7170;BME280;3626;42.656;23.312;2023-04-07T00:14:07;94187.06;;;1.07;56.97
7170;BME280;3626;42.656;23.312;2023-04-07T00:14:13;94184.53;;;1.07;57.11
7170;BME280;3626;42.656;23.312;2023-04-07T00:14:22;94187.06;;;1.07;57.13
7170;BME280;3626;42.656;23.312;2023-04-07T00:14:28;94191.06;;;1.10;56.89
7170;BME280;3626;42.656;23.312;2023-04-07T00:14:34;94197.78;;;1.11;57.19
7170;BME280;3626;42.656;23.312;2023-04-07T00:14:40;94193.63;;;1.10;56.88
7170;BME280;3626;42.656;23.312;2023-04-07T00:14:46;94190.28;;;1.09;57.04
7170;BME280;3626;42.656;23.312;2023-04-07T00:14:52;94193.63;;;1.10;56.98
7170;BME280;3626;42.656;23.312;2023-04-07T00:14:58;94193.63;;;1.10;57.00
7170;BME280;3626;42.656;23.312;2023-04-07T00:15:05;94188.53;;;1.10;57.14
7170;BME280;3626;42.656;23.312;2023-04-07T00:15:11;94190.28;;;1.09;57.38
7170;BME280;3626;42.656;23.312;2023-04-07T00:15:17;94191.06;;;1.10;57.08
7170;BME280;3626;42.656;23.312;2023-04-07T00:15:24;94190.16;;;1.11;57.07
7170;BME280;3626;42.656;23.312;2023-04-07T00:15:33;94197.78;;;1.11;56.92
7170;BME280;3626;42.656;23.312;2023-04-07T00:15:39;94190.16;;;1.11;56.82
7170;BME280;3626;42.656;23.312;2023-04-07T00:15:45;94196.06;;;1.11;56.72
7170;BME280;3626;42.656;23.312;2023-04-07T00:15:51;94190.03;;;1.12;56.86
7170;BME280;3626;42.656;23.312;2023-04-07T00:15:57;94193.38;;;1.13;56.85
7170;BME280;3626;42.656;23.312;2023-04-07T00:16:03;94185.75;;;1.13;56.69
7170;BME280;3626;42.656;23.312;2023-04-07T00:16:08;94181.47;;;1.13;56.35
7170;BME280;3626;42.656;23.312;2023-04-07T00:16:15;94180.69;;;1.13;56.51
7170;BME280;3626;42.656;23.312;2023-04-07T00:16:21;94184.03;;;1.13;56.34
7170;BME280;3626;42.656;23.312;2023-04-07T00:16:27;94180.69;;;1.13;56.81
7170;BME280;3626;42.656;23.312;2023-04-07T00:16:33;94186.69;;;1.12;56.92
7170;BME280;3626;42.656;23.312;2023-04-07T00:16:39;94188.44;;;1.11;56.48
7170;BME280;3626;42.656;23.312;2023-04-07T00:16:45;94189.34;;;1.10;56.74
7170;BME280;3626;42.656;23.312;2023-04-07T00:16:54;94194.41;;;1.10;56.67
7170;BME280;3626;42.656;23.312;2023-04-07T00:17:00;94191.88;;;1.10;56.86
7170;BME280;3626;42.656;23.312;2023-04-07T00:17:06;94190.16;;;1.11;56.78
7170;BME280;3626;42.656;23.312;2023-04-07T00:17:12;94199.50;;;1.10;56.76
7170;BME280;3626;42.656;23.312;2023-04-07T00:17:18;94185.91;;;1.11;56.85
7170;BME280;3626;42.656;23.312;2023-04-07T00:17:24;94187.63;;;1.11;57.03
7170;BME280;3626;42.656;23.312;2023-04-07T00:17:30;94183.44;;;1.10;56.86
7170;BME280;3626;42.656;23.312;2023-04-07T00:17:36;94186.78;;;1.10;56.84
7170;BME280;3626;42.656;23.312;2023-04-07T00:17:42;94191.78;;;1.12;56.54
7170;BME280;3626;42.656;23.312;2023-04-07T00:17:48;94188.31;;;1.13;56.50
7170;BME280;3626;42.656;23.312;2023-04-07T00:17:54;94193.38;;;1.13;56.59
7170;BME280;3626;42.656;23.312;2023-04-07T00:18:00;94193.38;;;1.13;56.37
7170;BME280;3626;42.656;23.312;2023-04-07T00:18:06;94189.91;;;1.14;56.70
7170;BME280;3626;42.656;23.312;2023-04-07T00:18:12;94187.50;;;1.12;56.76
7170;BME280;3626;42.656;23.312;2023-04-07T00:18:18;94194.19;;;1.13;56.92
7170;BME280;3626;42.656;23.312;2023-04-07T00:18:24;94184.81;;;1.14;56.74
7170;BME280;3626;42.656;23.312;2023-04-07T00:18:30;94188.31;;;1.13;57.02
7170;BME280;3626;42.656;23.312;2023-04-07T00:18:36;94188.31;;;1.13;57.04
7170;BME280;3626;42.656;23.312;2023-04-07T00:18:45;94187.38;;;1.14;57.00
7170;BME280;3626;42.656;23.312;2023-04-07T00:18:51;94188.31;;;1.13;57.06
7170;BME280;3626;42.656;23.312;2023-04-07T00:18:57;94181.63;;;1.12;56.74
7170;BME280;3626;42.656;23.312;2023-04-07T00:19:03;94186.69;;;1.12;56.82
7170;BME280;3626;42.656;23.312;2023-04-07T00:19:09;94191.66;;;1.13;56.76
7170;BME280;3626;42.656;23.312;2023-04-07T00:19:17;94189.91;;;1.14;56.71
7170;BME280;3626;42.656;23.312;2023-04-07T00:19:23;94187.50;;;1.12;56.77
7170;BME280;3626;42.656;23.312;2023-04-07T00:19:29;94190.03;;;1.12;56.81
7170;BME280;3626;42.656;23.312;2023-04-07T00:19:36;94190.03;;;1.12;56.85
7170;BME280;3626;42.656;23.312;2023-04-07T00:19:42;94182.56;;;1.11;56.93
7170;BME280;3626;42.656;23.312;2023-04-07T00:19:48;94186.69;;;1.12;56.89
7170;BME280;3626;42.656;23.312;2023-04-07T00:19:54;94185.91;;;1.11;56.42
7170;BME280;3626;42.656;23.312;2023-04-07T00:20:00;94188.44;;;1.11;56.99
7170;BME280;3626;42.656;23.312;2023-04-07T00:20:07;94189.25;;;1.12;56.75
7170;BME280;3626;42.656;23.312;2023-04-07T00:20:13;94188.44;;;1.11;56.72
7170;BME280;3626;42.656;23.312;2023-04-07T00:20:19;94181.72;;;1.10;56.78
7170;BME280;3626;42.656;23.312;2023-04-07T00:20:25;94191.06;;;1.10;56.77
7170;BME280;3626;42.656;23.312;2023-04-07T00:20:31;94188.44;;;1.11;56.72
7170;BME280;3626;42.656;23.312;2023-04-07T00:20:40;94188.53;;;1.10;56.74
7170;BME280;3626;42.656;23.312;2023-04-07T00:20:46;94182.66;;;1.09;56.68
7170;BME280;3626;42.656;23.312;2023-04-07T00:20:52;94188.53;;;1.10;56.74
7170;BME280;3626;42.656;23.312;2023-04-07T00:20:58;94186.00;;;1.10;56.93
7170;BME280;3626;42.656;23.312;2023-04-07T00:21:04;94185.19;;;1.09;56.75
7170;BME280;3626;42.656;23.312;2023-04-07T00:21:10;94185.31;;;1.08;56.83
7170;BME280;3626;42.656;23.312;2023-04-07T00:21:16;94186.00;;;1.10;56.59
7170;BME280;3626;42.656;23.312;2023-04-07T00:21:22;94181.84;;;1.09;56.67
7170;BME280;3626;42.656;23.312;2023-04-07T00:21:30;94179.44;;;1.07;56.75
7170;BME280;3626;42.656;23.312;2023-04-07T00:21:36;94186.13;;;1.08;56.74
7170;BME280;3626;42.656;23.312;2023-04-07T00:21:48;94188.78;;;1.07;56.99
7170;BME280;3626;42.656;23.312;2023-04-07T00:21:54;94186.25;;;1.07;57.07
7170;BME280;3626;42.656;23.312;2023-04-07T00:22:01;94188.66;;;1.08;57.06
7170;BME280;3626;42.656;23.312;2023-04-07T00:22:07;94184.53;;;1.07;56.73
7170;BME280;3626;42.656;23.312;2023-04-07T00:22:13;94183.72;;;1.07;56.94
7170;BME280;3626;42.656;23.312;2023-04-07T00:22:19;94191.22;;;1.08;57.03
7170;BME280;3626;42.656;23.312;2023-04-07T00:22:25;94190.41;;;1.08;57.25
7170;BME280;3626;42.656;23.312;2023-04-07T00:22:31;94187.88;;;1.08;56.88
7170;BME280;3626;42.656;23.312;2023-04-07T00:22:37;94188.78;;;1.07;57.26
7170;BME280;3626;42.656;23.312;2023-04-07T00:22:43;94187.88;;;1.08;57.06
7170;BME280;3626;42.656;23.312;2023-04-07T00:22:51;94185.31;;;1.08;56.95
7170;BME280;3626;42.656;23.312;2023-04-07T00:22:56;94192.94;;;1.08;57.05
7170;BME280;3626;42.656;23.312;2023-04-07T00:23:02;94190.41;;;1.08;57.13
7170;BME280;3626;42.656;23.312;2023-04-07T00:23:08;94186.94;;;1.09;56.99
7170;BME280;3626;42.656;23.312;2023-04-07T00:23:14;94186.25;;;1.07;57.05
7170;BME280;3626;42.656;23.312;2023-04-07T00:23:24;94188.66;;;1.08;56.94
7170;BME280;3626;42.656;23.312;2023-04-07T00:23:30;94190.41;;;1.08;57.07
7170;BME280;3626;42.656;23.312;2023-04-07T00:23:36;94190.41;;;1.08;57.14
7170;BME280;3626;42.656;23.312;2023-04-07T00:23:42;94194.56;;;1.09;57.21
7170;BME280;3626;42.656;23.312;2023-04-07T00:23:48;94190.28;;;1.09;57.39
7170;BME280;3626;42.656;23.312;2023-04-07T00:23:54;94191.22;;;1.08;57.18
7170;BME280;3626;42.656;23.312;2023-04-07T00:24:00;94191.06;;;1.10;56.98
7170;BME280;3626;42.656;23.312;2023-04-07T00:24:06;94186.78;;;1.10;57.28
7170;BME280;3626;42.656;23.312;2023-04-07T00:24:12;94186.78;;;1.10;56.90
7170;BME280;3626;42.656;23.312;2023-04-07T00:24:20;94195.25;;;1.11;57.02
7170;BME280;3626;42.656;23.312;2023-04-07T00:24:25;94186.00;;;1.10;56.69
7170;BME280;3626;42.656;23.312;2023-04-07T00:24:31;94189.34;;;1.10;56.83
7170;BME280;3626;42.656;23.312;2023-04-07T00:24:37;94185.19;;;1.09;57.01
7170;BME280;3626;42.656;23.312;2023-04-07T00:24:43;94187.06;;;1.07;56.89
7170;BME280;3626;42.656;23.312;2023-04-07T00:24:52;94187.06;;;1.07;56.75
7170;BME280;3626;42.656;23.312;2023-04-07T00:24:59;94186.25;;;1.07;57.18
7170;BME280;3626;42.656;23.312;2023-04-07T00:25:06;94184.63;;;1.06;57.16
7170;BME280;3626;42.656;23.312;2023-04-07T00:25:12;94191.44;;;1.05;57.04
7170;BME280;3626;42.656;23.312;2023-04-07T00:25:18;94187.16;;;1.06;57.04
7170;BME280;3626;42.656;23.312;2023-04-07T00:25:24;94188.09;;;1.05;57.15
7170;BME280;3626;42.656;23.312;2023-04-07T00:25:30;94185.56;;;1.05;56.94
7170;BME280;3626;42.656;23.312;2023-04-07T00:25:36;94190.63;;;1.05;56.98
7170;BME280;3626;42.656;23.312;2023-04-07T00:25:42;94193.19;;;1.05;57.27
7170;BME280;3626;42.656;23.312;2023-04-07T00:25:49;94189.81;;;1.04;57.11
7170;BME280;3626;42.656;23.312;2023-04-07T00:25:55;94188.09;;;1.05;57.38
7170;BME280;3626;42.656;23.312;2023-04-07T00:26:01;94183.00;;;1.05;57.48
7170;BME280;3626;42.656;23.312;2023-04-07T00:26:07;94183.13;;;1.03;57.16
7170;BME280;3626;42.656;23.312;2023-04-07T00:26:13;94183.13;;;1.03;57.19
7170;BME280;3626;42.656;23.312;2023-04-07T00:26:19;94186.63;;;1.02;57.02
7170;BME280;3626;42.656;23.312;2023-04-07T00:26:25;94182.34;;;1.03;57.14
7170;BME280;3626;42.656;23.312;2023-04-07T00:26:35;94183.25;;;1.02;57.24
7170;BME280;3626;42.656;23.312;2023-04-07T00:26:41;94186.63;;;1.02;57.03
7170;BME280;3626;42.656;23.312;2023-04-07T00:26:47;94183.25;;;1.02;57.08
7170;BME280;3626;42.656;23.312;2023-04-07T00:26:56;94187.41;;;1.03;57.38
7170;BME280;3626;42.656;23.312;2023-04-07T00:27:02;94180.69;;;1.02;57.33
7170;BME280;3626;42.656;23.312;2023-04-07T00:27:08;94186.72;;;1.00;57.18
7170;BME280;3626;42.656;23.312;2023-04-07T00:27:14;94185.78;;;1.02;57.03
7170;BME280;3626;42.656;23.312;2023-04-07T00:27:20;94182.34;;;1.03;57.03
7170;BME280;3626;42.656;23.312;2023-04-07T00:27:27;94185.78;;;1.02;57.21
7170;BME280;3626;42.656;23.312;2023-04-07T00:27:33;94177.25;;;1.03;56.96
7170;BME280;3626;42.656;23.312;2023-04-07T00:27:39;94183.13;;;1.03;57.19
7170;BME280;3626;42.656;23.312;2023-04-07T00:27:45;94179.66;;;1.04;57.25
7170;BME280;3626;42.656;23.312;2023-04-07T00:27:51;94180.47;;;1.05;57.24
7170;BME280;3626;42.656;23.312;2023-04-07T00:28:03;94180.47;;;1.05;57.26
7170;BME280;3626;42.656;23.312;2023-04-07T00:28:09;94183.00;;;1.05;57.08
7170;BME280;3626;42.656;23.312;2023-04-07T00:28:15;94185.56;;;1.05;57.13
7170;BME280;3626;42.656;23.312;2023-04-07T00:28:21;94184.88;;;1.03;57.33
7170;BME280;3626;42.656;23.312;2023-04-07T00:28:30;94184.88;;;1.03;57.16
7170;BME280;3626;42.656;23.312;2023-04-07T00:28:36;94186.63;;;1.02;57.61
7170;BME280;3626;42.656;23.312;2023-04-07T00:28:42;94188.22;;;1.03;57.22
7170;BME280;3626;42.656;23.312;2023-04-07T00:28:48;94184.88;;;1.03;57.22
7170;BME280;3626;42.656;23.312;2023-04-07T00:28:54;94184.88;;;1.03;57.25
7170;BME280;3626;42.656;23.312;2023-04-07T00:29:00;94184.88;;;1.03;57.23
7170;BME280;3626;42.656;23.312;2023-04-07T00:29:06;94189.16;;;1.02;57.32
7170;BME280;3626;42.656;23.312;2023-04-07T00:29:12;94181.53;;;1.02;57.17
7170;BME280;3626;42.656;23.312;2023-04-07T00:29:18;94187.41;;;1.03;56.99
7170;BME280;3626;42.656;23.312;2023-04-07T00:29:24;94179.00;;;1.02;56.89
7170;BME280;3626;42.656;23.312;2023-04-07T00:29:30;94183.13;;;1.03;57.04
7170;BME280;3626;42.656;23.312;2023-04-07T00:29:36;94182.34;;;1.03;56.81
7170;BME280;3626;42.656;23.312;2023-04-07T00:29:42;94176.31;;;1.04;56.62
7170;BME280;3626;42.656;23.312;2023-04-07T00:29:48;94174.59;;;1.04;56.57
7170;BME280;3626;42.656;23.312;2023-04-07T00:29:54;94176.19;;;1.05;56.87
7170;BME280;3626;42.656;23.312;2023-04-07T00:30:02;94171.91;;;1.06;56.67
7170;BME280;3626;42.656;23.312;2023-04-07T00:30:11;94171.91;;;1.06;56.81
7170;BME280;3626;42.656;23.312;2023-04-07T00:30:18;94179.53;;;1.06;56.93
7170;BME280;3626;42.656;23.312;2023-04-07T00:30:24;94184.63;;;1.06;56.62
7170;BME280;3626;42.656;23.312;2023-04-07T00:30:30;94181.28;;;1.05;56.69
7170;BME280;3626;42.656;23.312;2023-04-07T00:30:36;94177.00;;;1.06;56.61
7170;BME280;3626;42.656;23.312;2023-04-07T00:30:42;94178.72;;;1.05;56.90
7170;BME280;3626;42.656;23.312;2023-04-07T00:30:48;94181.28;;;1.05;56.75
7170;BME280;3626;42.656;23.312;2023-04-07T00:30:54;94175.38;;;1.05;56.95
7170;BME280;3626;42.656;23.312;2023-04-07T00:31:00;94173.66;;;1.05;56.49
7170;BME280;3626;42.656;23.312;2023-04-07T00:31:06;94174.59;;;1.04;56.96
7170;BME280;3626;42.656;23.312;2023-04-07T00:31:12;94184.75;;;1.04;56.39
7170;BME280;3626;42.656;23.312;2023-04-07T00:31:18;94181.41;;;1.04;56.50
7170;BME280;3626;42.656;23.312;2023-04-07T00:31:24;94176.31;;;1.04;56.84
7170;BME280;3626;42.656;23.312;2023-04-07T00:31:30;94176.19;;;1.05;56.56
7170;BME280;3626;42.656;23.312;2023-04-07T00:31:39;94180.47;;;1.05;56.34
7170;BME280;3626;42.656;23.312;2023-04-07T00:31:45;94177.13;;;1.04;56.51
7170;BME280;3626;42.656;23.312;2023-04-07T00:31:51;94180.47;;;1.05;56.32
7170;BME280;3626;42.656;23.312;2023-04-07T00:31:57;94177.94;;;1.05;56.62
7170;BME280;3626;42.656;23.312;2023-04-07T00:32:03;94175.38;;;1.05;56.63
7170;BME280;3626;42.656;23.312;2023-04-07T00:32:09;94172.84;;;1.05;56.45
7170;BME280;3626;42.656;23.312;2023-04-07T00:32:17;94175.50;;;1.03;56.68
7170;BME280;3626;42.656;23.312;2023-04-07T00:32:23;94180.47;;;1.05;56.83
7170;BME280;3626;42.656;23.312;2023-04-07T00:32:29;94177.94;;;1.05;56.35
7170;BME280;3626;42.656;23.312;2023-04-07T00:32:35;94174.59;;;1.04;56.69
7170;BME280;3626;42.656;23.312;2023-04-07T00:32:41;94174.59;;;1.04;56.61
7170;BME280;3626;42.656;23.312;2023-04-07T00:32:47;94181.41;;;1.04;56.64
7170;BME280;3626;42.656;23.312;2023-04-07T00:32:55;94175.50;;;1.03;56.44
7170;BME280;3626;42.656;23.312;2023-04-07T00:33:01;94170.44;;;1.03;56.38
7170;BME280;3626;42.656;23.312;2023-04-07T00:33:09;94174.59;;;1.04;56.42
7170;BME280;3626;42.656;23.312;2023-04-07T00:33:15;94172.84;;;1.05;56.16
7170;BME280;3626;42.656;23.312;2023-04-07T00:33:21;94176.19;;;1.05;56.32
7170;BME280;3626;42.656;23.312;2023-04-07T00:33:27;94177.78;;;1.06;56.32
7170;BME280;3626;42.656;23.312;2023-04-07T00:33:33;94176.09;;;1.07;56.00
7170;BME280;3626;42.656;23.312;2023-04-07T00:33:39;94173.41;;;1.08;56.43
7170;BME280;3626;42.656;23.312;2023-04-07T00:33:45;94171.69;;;1.09;55.91
7170;BME280;3626;42.656;23.312;2023-04-07T00:33:52;94175.97;;;1.08;55.92
7170;BME280;3626;42.656;23.312;2023-04-07T00:34:01;94175.84;;;1.10;56.05
7170;BME280;3626;42.656;23.312;2023-04-07T00:34:07;94171.00;;;1.07;55.95
7170;BME280;3626;42.656;23.312;2023-04-07T00:34:13;94175.97;;;1.08;56.27
7170;BME280;3626;42.656;23.312;2023-04-07T00:34:19;94169.28;;;1.07;56.24
7170;BME280;3626;42.656;23.312;2023-04-07T00:34:25;94176.09;;;1.07;55.78
7170;BME280;3626;42.656;23.312;2023-04-07T00:34:31;94168.47;;;1.07;55.81
7170;BME280;3626;42.656;23.312;2023-04-07T00:34:37;94171.91;;;1.06;56.21
7170;BME280;3626;42.656;23.312;2023-04-07T00:34:43;94169.38;;;1.06;56.34
7170;BME280;3626;42.656;23.312;2023-04-07T00:34:52;94166.16;;;1.04;56.11
7170;BME280;3626;42.656;23.312;2023-04-07T00:34:58;94169.50;;;1.04;56.20